Weather at Dimona Airport

Public forecast

Using degrees Celsius for public forecast. Weather courtesy of forecast.io.

Closest aviation weather report (METAR) to Dimona Airport

Closest report is Ben Gurion International Airport, 57.4 nm (106.3 km) N.

2024/02/29 09:20 (retrieved 33 minutes ago)

LLBG 290920Z 11014KT CAVOK 22/M09 Q1020 TEMPO 12020G30KT

Closest aviation forecast (TAF) to Dimona Airport

Closest forecast is Ben Gurion International Airport, 57.4 nm (106.3 km) N.

2024/02/29 06:24 (retrieved 3 hours ago)

TAF TAF LLBG 290511Z 2906/0106 12012KT CAVOK TEMPO 2906/2908 05005KT PROB40 TEMPO 2908/2914 12020G30KT BECMG 2914/2916 05005KT BECMG 0100/0102 12012KT TX24/2912Z TN13/0104Z